Terminal Aerodrome Forecast
Issued by NWS

Home | Current Version | Previous Version | Text Only | Print | Product List | Glossary On
Versions: 1 2 3 4 5 6 7 8 9 10 11 12 13 14 15 16 17
000
FTUS43 KICT 281522 AAA
TAFCNU
TAF AMD
KCNU 281522Z 2815/0112 20022G30KT P6SM SCT015 OVC100
     FM281700 20026G35KT P6SM SCT035 OVC100
     FM010000 20017G26KT P6SM VCTS SCT035CB BKN080
     FM010800 32017G26KT P6SM BKN025=

USA.gov is the U.S. government's official web portal to all federal, state and local government web resources and services.